Time;durP1;ratioP1;P1;durP2;ratioP2;P2;SDS_P1;SDS_P2;PMS_P1;PMS_P2;Temp;Humidity;BMP_temperature;BMP_pressure;BME280_temperature;BME280_humidity;BME280_pressure;Samples;Min_cycle;Max_cycle;Signal;HPM_P1;HPM_P2
2021/11/29 00:00:48;;;;;;;1999.90;999.90;;;;;;;5.35;73.38;99373.13;15542936;28;20038;-65
2021/11/29 00:08:31;;;;;;;1999.90;999.90;;;;;;;5.10;74.24;99381.16;15503856;28;20101;-63
2021/11/29 00:16:06;;;;;;;1999.90;999.90;;;;;;;5.28;74.32;99372.81;15527198;28;20054;-65
2021/11/29 00:23:39;;;;;;;1999.90;999.90;;;;;;;5.34;74.33;99372.31;15562475;28;20056;-67
2021/11/29 00:31:13;;;;;;;1999.90;999.90;;;;;;;5.27;73.87;99371.19;15500627;28;20418;-65
2021/11/29 00:38:46;;;;;;;1999.90;999.90;;;;;;;5.34;74.01;99375.09;15501260;28;20042;-65
2021/11/29 00:46:20;;;;;;;1999.90;999.90;;;;;;;5.35;73.79;99385.00;15546481;28;20080;-64
2021/11/29 00:53:53;;;;;;;1999.90;999.90;;;;;;;5.34;73.66;99386.16;15544744;28;20042;-65
2021/11/29 01:01:27;;;;;;;1999.90;999.90;;;;;;;5.33;73.94;99400.31;15561715;28;20108;-65
2021/11/29 01:09:00;;;;;;;1999.90;999.90;;;;;;;5.50;73.68;99416.84;15560880;28;20052;-67
2021/11/29 01:16:35;;;;;;;1999.90;999.90;;;;;;;5.66;73.25;99412.38;15545816;28;20499;-64
2021/11/29 01:24:08;;;;;;;1999.90;999.90;;;;;;;5.43;74.33;99411.84;15498330;28;20105;-66
2021/11/29 01:31:42;;;;;;;1999.90;999.90;;;;;;;5.29;74.79;99415.91;15481015;28;20133;-66
2021/11/29 01:39:15;;;;;;;1999.90;999.90;;;;;;;5.41;74.47;99429.88;15497751;28;20038;-67
2021/11/29 01:46:49;;;;;;;1999.90;999.90;;;;;;;5.43;74.28;99430.38;15498251;28;20050;-66
2021/11/29 01:54:25;;;;;;;1999.90;999.90;;;;;;;4.98;75.24;99429.97;15497212;28;20129;-65
2021/11/29 02:01:59;;;;;;;1999.90;999.90;;;;;;;5.05;75.47;99433.88;15496241;28;20065;-65
2021/11/29 02:09:32;;;;;;;1999.90;999.90;;;;;;;5.12;74.74;99436.16;15495884;28;20048;-66
2021/11/29 02:17:08;;;;;;;1999.90;999.90;;;;;;;4.64;75.62;99434.38;15512741;28;20042;-65
2021/11/29 02:24:43;;;;;;;1999.90;999.90;;;;;;;4.68;76.11;99443.63;15557170;28;20057;-65
2021/11/29 02:32:15;;;;;;;1999.90;999.90;;;;;;;4.94;75.19;99443.63;15521096;28;20046;-65
2021/11/29 02:39:50;;;;;;;1999.90;999.90;;;;;;;4.96;74.88;99446.88;15498706;28;20450;-65
2021/11/29 02:47:23;;;;;;;1999.90;999.90;;;;;;;4.85;75.45;99451.94;15516395;28;20038;-65
2021/11/29 02:54:57;;;;;;;1999.90;999.90;;;;;;;4.61;75.84;99459.91;15554701;28;20050;-65
2021/11/29 03:02:32;;;;;;;1999.90;999.90;;;;;;;4.88;74.59;99454.03;15494713;28;20055;-64
2021/11/29 03:10:07;;;;;;;1999.90;999.90;;;;;;;5.00;74.86;99458.09;15493247;28;20069;-65
2021/11/29 03:17:40;;;;;;;1999.90;999.90;;;;;;;4.80;74.58;99457.63;15535223;28;20046;-65
2021/11/29 03:25:14;;;;;;;1999.90;999.90;;;;;;;4.90;74.99;99451.78;15555136;28;20050;-65
2021/11/29 03:32:47;;;;;;;1999.90;999.90;;;;;;;4.93;74.85;99453.88;15553427;28;20308;-65
2021/11/29 03:40:21;;;;;;;1999.90;999.90;;;;;;;5.20;74.97;99458.22;15554236;28;20050;-65
2021/11/29 03:47:54;;;;;;;1999.90;999.90;;;;;;;5.19;73.72;99461.31;15541928;28;20046;-65
2021/11/29 03:55:29;;;;;;;1999.90;999.90;;;;;;;5.17;74.68;99461.66;15491381;28;20042;-65
2021/11/29 04:03:02;;;;;;;1999.90;999.90;;;;;;;5.06;74.83;99449.31;15492103;28;20065;-66
2021/11/29 04:10:37;;;;;;;1999.90;999.90;;;;;;;5.15;74.49;99455.66;15491310;28;20297;-66
2021/11/29 04:18:10;;;;;;;1999.90;999.90;;;;;;;5.02;74.68;99459.41;15483576;28;20073;-66
2021/11/29 04:25:48;;;;;;;1999.90;999.90;;;;;;;5.07;75.42;99456.47;15501736;28;20133;-66
2021/11/29 04:33:22;;;;;;;1999.90;999.90;;;;;;;5.05;75.35;99471.75;15501881;28;20419;-65
2021/11/29 04:40:56;;;;;;;;;;;;;;;5.25;74.14;99462.78;15502986;28;20046;-66
2021/11/29 04:48:29;;;;;;;1999.90;999.90;;;;;;;5.10;74.90;99455.81;15519486;28;19921;-65
2021/11/29 04:56:04;;;;;;;1999.90;999.90;;;;;;;5.24;74.62;99460.38;15514120;28;20105;-67
2021/11/29 05:03:37;;;;;;;1999.90;999.90;;;;;;;5.02;74.81;99469.66;15494463;28;20145;-66
2021/11/29 05:11:11;;;;;;;1999.90;999.90;;;;;;;5.21;74.93;99470.94;15520402;28;20093;-65
2021/11/29 05:18:44;;;;;;;1999.90;999.90;;;;;;;5.11;75.66;99492.59;15500480;28;20069;-65
2021/11/29 05:26:20;;;;;;;1999.90;999.90;;;;;;;5.11;75.61;99489.81;15561194;28;20080;-65
2021/11/29 05:33:54;;;;;;;1999.90;999.90;;;;;;;4.87;76.54;99504.94;15558354;28;20052;-65
2021/11/29 05:41:28;;;;;;;1999.90;999.90;;;;;;;5.02;75.98;99523.00;15498591;28;20064;-65
2021/11/29 05:49:14;;;;;;;1999.90;999.90;;;;;;;5.26;75.88;99521.69;15498580;28;20085;-66
2021/11/29 05:56:48;;;;;;;1999.90;999.90;;;;;;;5.49;74.90;99542.47;15496202;28;20423;-64
2021/11/29 06:04:21;;;;;;;1999.90;999.90;;;;;;;5.32;75.03;99537.78;15497038;28;20061;-65
2021/11/29 06:11:56;;;;;;;1999.90;999.90;;;;;;;5.34;74.55;99541.03;15494424;28;20082;-65
2021/11/29 06:19:28;;;;;;;1999.90;999.90;;;;;;;5.39;74.70;99556.66;15495167;28;20050;-68
2021/11/29 06:27:03;;;;;;;1999.90;999.90;;;;;;;5.13;75.11;99564.97;15493950;28;20050;-65
2021/11/29 06:34:36;;;;;;;1999.90;999.90;;;;;;;5.39;74.25;99573.25;15476980;28;20485;-66
2021/11/29 06:42:10;;;;;;;1999.90;999.90;;;;;;;5.35;73.99;99581.41;15476847;28;20047;-66
2021/11/29 06:49:45;;;;;;;1999.90;999.90;;;;;;;5.04;74.32;99589.84;15494237;28;20427;-65
2021/11/29 06:57:20;;;;;;;1999.90;999.90;;;;;;;5.07;74.46;99589.19;15493415;28;20050;-66
2021/11/29 07:04:54;;;;;;;1999.90;999.90;;;;;;;5.03;75.33;99582.69;15491072;28;20077;-66
2021/11/29 07:12:28;;;;;;;1999.90;999.90;;;;;;;5.11;74.49;99595.72;15528634;28;20133;-66
2021/11/29 07:20:01;;;;;;;1999.90;999.90;;;;;;;5.16;75.10;99609.38;15554143;28;20101;-65
2021/11/29 07:27:35;;;;;;;1999.90;999.90;;;;;;;5.22;74.79;99630.22;15552718;28;20443;-66
2021/11/29 07:35:09;;;;;;;1999.90;999.90;;;;;;;5.21;74.60;99633.31;15541962;28;20562;-65
2021/11/29 07:42:44;;;;;;;1999.90;999.90;;;;;;;5.29;75.00;99645.50;15472213;28;20140;-66
2021/11/29 07:50:19;;;;;;;1999.90;999.90;;;;;;;5.28;75.00;99646.63;15524895;28;20121;-65
2021/11/29 07:57:53;;;;;;;1999.90;999.90;;;;;;;5.65;73.62;99657.06;15546945;28;20038;-66
2021/11/29 08:05:28;;;;;;;1999.90;999.90;;;;;;;5.62;74.38;99660.47;15563844;28;20041;-65
2021/11/29 08:13:04;;;;;;;1999.90;999.90;;;;;;;5.72;73.58;99653.81;15562419;28;20140;-65
2021/11/29 08:20:38;;;;;;;1999.90;999.90;;;;;;;5.23;74.81;99666.97;15542643;28;20097;-67
2021/11/29 08:28:13;;;;;;;1999.90;999.90;;;;;;;5.52;73.36;99671.88;15502730;28;20276;-66
2021/11/29 08:35:47;;;;;;;1999.90;999.90;;;;;;;5.58;73.75;99689.13;15502450;28;20452;-65
2021/11/29 08:43:21;;;;;;;1999.90;999.90;;;;;;;5.44;74.93;99692.88;15500757;28;20066;-65
2021/11/29 08:50:56;;;;;;;1999.90;999.90;;;;;;;5.58;74.25;99695.47;15499763;28;20451;-65
2021/11/29 08:58:30;;;;;;;1999.90;999.90;;;;;;;5.77;74.31;99701.53;15500476;28;20046;-65
2021/11/29 09:06:04;;;;;;;1999.90;999.90;;;;;;;5.39;75.12;99709.63;15499447;28;20475;-66
2021/11/29 09:13:39;;;;;;;1999.90;999.90;;;;;;;5.53;74.75;99712.25;15481921;28;20507;-66
2021/11/29 09:21:13;;;;;;;1999.90;999.90;;;;;;;5.36;75.22;99726.88;15497693;28;20050;-66
2021/11/29 09:28:47;;;;;;;1999.90;999.90;;;;;;;5.54;75.06;99732.44;15498959;28;20130;-66
2021/11/29 09:36:20;;;;;;;1999.90;999.90;;;;;;;5.57;74.94;99724.28;15499563;28;20496;-65
2021/11/29 09:43:55;;;;;;;1999.90;999.90;;;;;;;5.78;74.40;99725.28;15497066;28;20129;-66
2021/11/29 09:51:28;;;;;;;1999.90;999.90;;;;;;;5.75;74.62;99708.53;15495816;28;20553;-64
2021/11/29 09:59:03;;;;;;;1999.90;999.90;;;;;;;6.00;74.28;99707.72;15551402;28;20045;-66
2021/11/29 10:06:36;;;;;;;1999.90;999.90;;;;;;;6.19;74.06;99710.16;15555704;28;20136;-66
2021/11/29 10:14:15;;;;;;;1999.90;999.90;;;;;;;6.16;73.43;99716.34;15556612;28;20077;-65
2021/11/29 10:21:48;;;;;;;1999.90;999.90;;;;;;;6.19;73.74;99715.69;15538839;28;20046;-66
2021/11/29 10:29:26;;;;;;;1999.90;999.90;;;;;;;6.46;72.49;99719.22;15501319;28;20125;-66
2021/11/29 10:37:02;;;;;;;1999.90;999.90;;;;;;;6.12;72.48;99723.69;15514053;28;20605;-65
2021/11/29 10:44:39;;;;;;;1999.90;999.90;;;;;;;6.25;73.00;99727.41;15543732;28;20060;-65
2021/11/29 10:52:17;;;;;;;1999.90;999.90;;;;;;;6.20;72.67;99736.72;15512196;28;20054;-64
2021/11/29 10:59:54;;;;;;;1999.90;999.90;;;;;;;5.68;74.16;99739.44;15476422;28;20044;-65
2021/11/29 11:07:27;;;;;;;1999.90;999.90;;;;;;;5.74;73.89;99751.19;15520149;28;20042;-65
2021/11/29 11:15:05;;;;;;;1999.90;999.90;;;;;;;6.03;73.60;99745.84;15552530;28;20426;-65
2021/11/29 11:22:39;;;;;;;1999.90;999.90;;;;;;;5.84;74.12;99755.59;15554944;28;20053;-65
2021/11/29 11:30:15;;;;;;;1999.90;999.90;;;;;;;5.70;73.87;99755.72;15565761;28;20045;-64
2021/11/29 11:37:52;;;;;;;1999.90;999.90;;;;;;;5.84;73.95;99767.50;15566560;28;20045;-65
2021/11/29 11:45:28;;;;;;;1999.90;999.90;;;;;;;5.89;73.09;99760.97;15508561;28;20096;-64
2021/11/29 11:53:02;;;;;;;1999.90;999.90;;;;;;;6.07;72.75;99755.13;15505228;28;20070;-63
2021/11/29 12:00:41;;;;;;;1999.90;999.90;;;;;;;6.32;71.04;99766.53;15505614;28;20077;-64
2021/11/29 12:08:31;;;;;;;1999.90;999.90;;;;;;;6.46;71.25;99763.56;15502003;28;20145;-64
2021/11/29 12:16:09;;;;;;;1999.90;999.90;;;;;;;6.23;70.63;99771.25;15526333;28;20054;-65
2021/11/29 12:23:47;;;;;;;1999.90;999.90;;;;;;;6.10;70.06;99777.78;15542794;28;20045;-63
2021/11/29 12:31:38;;;;;;;1999.90;999.90;;;;;;;5.74;69.35;99789.94;15561723;28;20050;-65
2021/11/29 12:39:11;;;;;;;1999.90;999.90;;;;;;;6.13;68.64;99791.78;15560133;28;20046;-64
2021/11/29 12:46:46;;;;;;;1999.90;999.90;;;;;;;10.88;54.31;99792.13;15541605;28;20054;-65
2021/11/29 12:54:34;;;;;;;1999.90;999.90;;;;;;;11.06;52.60;99803.78;15502119;28;20057;-64
2021/11/29 13:02:40;;;;;;;1999.90;999.90;;;;;;;11.06;51.60;99808.53;15530268;28;20121;-64
2021/11/29 13:10:46;;;;;;;1999.90;999.90;;;;;;;10.34;51.87;99816.88;15522509;28;20042;-65
2021/11/29 13:18:53;;;;;;;1999.90;999.90;;;;;;;7.51;60.94;99824.75;15527371;28;20050;-64
2021/11/29 13:26:29;;;;;;;1999.90;999.90;;;;;;;8.18;59.81;99833.31;15454964;28;20039;-65
2021/11/29 13:34:04;;;;;;;1999.90;999.90;;;;;;;6.69;63.92;99837.06;15437188;28;20081;-65
2021/11/29 13:41:38;;;;;;;1999.90;999.90;;;;;;;6.58;64.92;99847.69;15438274;28;20072;-65
2021/11/29 13:49:11;;;;;;;1999.90;999.90;;;;;;;7.15;64.21;99836.31;15435781;28;20094;-64
2021/11/29 13:56:47;;;;;;;1999.90;999.90;;;;;;;6.89;63.68;99850.25;15479872;28;20178;-63
2021/11/29 14:04:21;;;;;;;1999.90;999.90;;;;;;;6.59;64.35;99865.13;15501501;28;20061;-64
2021/11/29 14:11:57;;;;;;;1999.90;999.90;;;;;;;6.05;63.00;99870.16;15541308;28;20141;-65
2021/11/29 14:19:30;;;;;;;1999.90;999.90;;;;;;;6.35;63.39;99885.81;15518116;28;20065;-65
2021/11/29 14:27:08;;;;;;;1999.90;999.90;;;;;;;6.32;64.44;99894.78;15495306;28;20050;-64
2021/11/29 14:34:44;;;;;;;1999.90;999.90;;;;;;;6.11;66.11;99896.53;15517535;28;20045;-65
2021/11/29 14:42:21;;;;;;;1999.90;999.90;;;;;;;5.69;67.72;99906.34;15556172;28;20133;-65
2021/11/29 14:50:09;;;;;;;1999.90;999.90;;;;;;;5.79;69.06;99925.44;15556117;28;20100;-65
2021/11/29 14:57:46;;;;;;;1999.90;999.90;;;;;;;5.55;69.61;99934.13;15537614;28;20054;-65
2021/11/29 15:05:20;;;;;;;1999.90;999.90;;;;;;;5.45;69.90;99937.16;15553307;28;20046;-65
2021/11/29 15:12:56;;;;;;;1999.90;999.90;;;;;;;5.58;71.09;99952.84;15507898;28;20042;-64
2021/11/29 15:20:35;;;;;;;1999.90;999.90;;;;;;;5.40;71.84;99959.41;15505923;28;20066;-65
2021/11/29 15:28:16;;;;;;;1999.90;999.90;;;;;;;5.25;72.84;99971.72;15508453;28;20120;-65
2021/11/29 15:35:54;;;;;;;1999.90;999.90;;;;;;;5.29;72.71;99977.41;15525657;28;20523;-65
2021/11/29 15:43:32;;;;;;;1999.90;999.90;;;;;;;5.35;72.46;99988.06;15536352;28;20442;-64
2021/11/29 15:51:11;;;;;;;1999.90;999.90;;;;;;;5.16;73.22;99992.97;15518215;28;20042;-67
2021/11/29 15:58:48;;;;;;;1999.90;999.90;;;;;;;5.22;72.83;100013.84;15561459;28;20046;-64
2021/11/29 16:06:23;;;;;;;1999.90;999.90;;;;;;;5.31;72.87;100016.66;15553683;28;20042;-64
2021/11/29 16:13:59;;;;;;;1999.90;999.90;;;;;;;5.05;74.18;100020.03;15513250;28;20117;-64
2021/11/29 16:21:34;;;;;;;1999.90;999.90;;;;;;;4.92;75.59;100034.75;15511668;28;20733;-64
2021/11/29 16:29:11;;;;;;;1999.90;999.90;;;;;;;4.97;76.15;100042.91;15512347;28;20045;-64
2021/11/29 16:36:45;;;;;;;1999.90;999.90;;;;;;;4.75;77.02;100051.16;15523211;23;20137;-79
2021/11/29 16:44:19;;;;;;;1999.90;999.90;;;;;;;5.14;75.91;100067.13;15624365;28;20076;-79
2021/11/29 16:51:52;;;;;;;1999.90;999.90;;;;;;;5.22;75.44;100072.75;15634443;22;20045;-76
2021/11/29 16:59:26;;;;;;;1999.90;999.90;;;;;;;5.36;75.76;100074.63;15601746;28;20566;-76
2021/11/29 17:06:59;;;;;;;1999.90;999.90;;;;;;;5.30;76.24;100085.00;15611724;28;20045;-75
2021/11/29 17:14:34;;;;;;;1999.90;999.90;;;;;;;5.41;76.91;100108.50;15571560;28;20049;-76
2021/11/29 17:22:06;;;;;;;1999.90;999.90;;;;;;;5.65;75.04;100104.63;15632198;28;20049;-75
2021/11/29 17:29:41;;;;;;;1999.90;999.90;;;;;;;5.60;75.22;100110.28;15671080;28;20041;-75
2021/11/29 17:37:15;;;;;;;1999.90;999.90;;;;;;;5.28;76.34;100108.56;15598097;28;20082;-76
2021/11/29 17:44:50;;;;;;;1999.90;999.90;;;;;;;5.27;76.60;100118.81;15555074;28;20045;-75
2021/11/29 17:52:23;;;;;;;1999.90;999.90;;;;;;;5.28;76.79;100131.50;15562288;28;20046;-76
2021/11/29 17:59:57;;;;;;;1999.90;999.90;;;;;;;5.39;77.02;100145.94;15557932;28;20096;-76
2021/11/29 18:07:33;;;;;;;1999.90;999.90;;;;;;;5.48;76.26;100139.34;15598177;28;20037;-76
2021/11/29 18:15:11;;;;;;;1999.90;999.90;;;;;;;5.47;76.41;100159.84;15615606;28;20064;-75
2021/11/29 18:22:46;;;;;;;1999.90;999.90;;;;;;;5.62;76.01;100160.59;15614918;28;20475;-74
2021/11/29 18:30:24;;;;;;;1999.90;999.90;;;;;;;5.68;76.48;100162.94;15613152;28;20458;-76
2021/11/29 18:37:57;;;;;;;1999.90;999.90;;;;;;;5.61;76.19;100184.69;15612166;28;20128;-76
2021/11/29 18:45:35;;;;;;;1999.90;999.90;;;;;;;5.41;77.24;100179.63;15611986;28;20041;-75
2021/11/29 18:53:08;;;;;;;1999.90;999.90;;;;;;;5.67;76.76;100175.16;15593224;28;20571;-77
2021/11/29 19:00:43;;;;;;;1999.90;999.90;;;;;;;5.52;76.66;100172.72;15598772;28;20076;-76
2021/11/29 19:08:15;;;;;;;1999.90;999.90;;;;;;;5.41;75.73;100168.56;15606330;28;20058;-76
2021/11/29 19:15:50;;;;;;;1999.90;999.90;;;;;;;5.48;75.75;100180.84;15549987;28;20536;-76
2021/11/29 19:23:23;;;;;;;1999.90;999.90;;;;;;;5.39;76.54;100187.44;15566092;28;20061;-76
2021/11/29 19:30:57;;;;;;;1999.90;999.90;;;;;;;5.47;76.76;100217.97;15550979;28;20557;-76
2021/11/29 19:38:30;;;;;;;1999.90;999.90;;;;;;;5.43;77.14;100218.91;15556489;28;20128;-76
2021/11/29 19:46:07;;;;;;;1999.90;999.90;;;;;;;5.51;75.98;100218.97;15588469;28;20037;-76
2021/11/29 19:53:41;;;;;;;1999.90;999.90;;;;;;;5.54;75.81;100230.56;15596388;28;20797;-76
2021/11/29 20:01:18;;;;;;;1999.90;999.90;;;;;;;5.55;75.56;100241.31;15560149;28;20053;-76
2021/11/29 20:08:51;;;;;;;1999.90;999.90;;;;;;;5.57;75.06;100229.94;15571555;28;20050;-75
2021/11/29 20:16:26;;;;;;;1999.90;999.90;;;;;;;5.57;75.21;100230.75;15620757;28;20056;-76
2021/11/29 20:24:01;;;;;;;1999.90;999.90;;;;;;;5.54;75.95;100241.63;15620247;28;20503;-76
2021/11/29 20:31:35;;;;;;;1999.90;999.90;;;;;;;5.50;75.76;100252.47;15619134;28;20057;-77
2021/11/29 20:39:16;;;;;;;1999.90;999.90;;;;;;;5.29;76.27;100241.03;15620911;28;20135;-77
2021/11/29 20:46:50;;;;;;;1999.90;999.90;;;;;;;5.21;77.00;100253.66;15579440;28;20188;-75
2021/11/29 20:54:23;;;;;;;1999.90;999.90;;;;;;;5.34;76.84;100246.47;15573404;28;20046;-76
2021/11/29 21:01:58;;;;;;;1999.90;999.90;;;;;;;5.32;76.36;100248.75;15557611;28;20042;-76
2021/11/29 21:09:31;;;;;;;1999.90;999.90;;;;;;;5.26;76.86;100240.84;15557796;28;20526;-75
2021/11/29 21:17:07;;;;;;;1999.90;999.90;;;;;;;5.37;76.37;100259.69;15553128;28;20064;-75
2021/11/29 21:24:40;;;;;;;1999.90;999.90;;;;;;;5.49;76.40;100248.09;15585014;28;20490;-76
2021/11/29 21:32:14;;;;;;;1999.90;999.90;;;;;;;5.29;76.81;100260.41;15571070;28;20038;-76
2021/11/29 21:39:47;;;;;;;1999.90;999.90;;;;;;;5.14;77.48;100269.03;15591829;28;20131;-75
2021/11/29 21:47:21;;;;;;;1999.90;999.90;;;;;;;5.42;76.34;100280.91;15616861;28;20053;-76
2021/11/29 21:54:54;;;;;;;1999.90;999.90;;;;;;;5.33;77.08;100299.34;15592510;28;20518;-77
2021/11/29 22:02:28;;;;;;;1999.90;999.90;;;;;;;5.09;77.50;100288.47;15554744;28;20129;-77
2021/11/29 22:10:01;;;;;;;1999.90;999.90;;;;;;;5.07;76.92;100280.50;15554953;28;20096;-77
2021/11/29 22:17:35;;;;;;;1999.90;999.90;;;;;;;5.02;78.02;100282.56;15551720;28;20042;-78
2021/11/29 22:25:09;;;;;;;1999.90;999.90;;;;;;;5.12;77.62;100285.13;15552987;28;20049;-77
2021/11/29 22:32:44;;;;;;;1999.90;999.90;;;;;;;5.24;77.16;100276.31;15604044;28;20083;-77
2021/11/29 22:40:17;;;;;;;1999.90;999.90;;;;;;;5.09;76.96;100277.41;15595998;28;20049;-76
2021/11/29 22:47:52;;;;;;;1999.90;999.90;;;;;;;4.99;77.43;100274.84;15612296;28;20042;-77
2021/11/29 22:55:25;;;;;;;1999.90;999.90;;;;;;;4.90;77.62;100281.13;15632007;22;20489;-58
2021/11/29 23:02:59;;;;;;;1999.90;999.90;;;;;;;4.91;76.95;100274.47;15567858;28;20038;-60
2021/11/29 23:10:33;;;;;;;1999.90;999.90;;;;;;;4.72;77.86;100281.19;15590972;22;20057;-67
2021/11/29 23:18:07;;;;;;;;;;;;;;;5.00;77.61;100257.94;15602101;28;20049;-66
2021/11/29 23:25:40;;;;;;;1999.90;999.90;;;;;;;5.06;77.31;100273.31;15588208;28;19952;-67
2021/11/29 23:33:14;;;;;;;1999.90;999.90;;;;;;;5.19;76.65;100261.44;15565056;28;20080;-66
2021/11/29 23:40:47;;;;;;;1999.90;999.90;;;;;;;4.84;77.88;100256.63;15588838;28;20703;-67
2021/11/29 23:48:30;;;;;;;1999.90;999.90;;;;;;;4.99;77.39;100261.84;15627049;28;20414;-67
2021/11/29 23:56:06;;;;;;;1999.90;999.90;;;;;;;5.00;77.62;100257.94;15625372;28;20398;-66
